Time;durP1;ratioP1;P1;durP2;ratioP2;P2;SDS_P1;SDS_P2;PMS_P1;PMS_P2;Temp;Humidity;BMP_temperature;BMP_pressure;BME280_temperature;BME280_humidity;BME280_pressure;Samples;Min_cycle;Max_cycle;Signal;HPM_P1;HPM_P2
2022/03/01 00:01:19;;;;;;;80.83;47.13;;;;;;;-0.46;70.37;102243.80;2721254;87;22432;-67
2022/03/01 00:05:20;;;;;;;79.85;46.45;;;;;;;-0.49;70.10;102239.44;2721893;87;21609;-67
2022/03/01 00:09:22;;;;;;;73.00;46.63;;;;;;;-0.42;69.79;102240.29;2722020;86;21049;-67
2022/03/01 00:13:23;;;;;;;86.70;45.98;;;;;;;-0.38;69.28;102237.23;2722025;87;21101;-66
2022/03/01 00:17:25;;;;;;;86.90;48.80;;;;;;;-0.37;68.98;102235.90;2721400;87;21550;-67
2022/03/01 00:21:28;;;;;;;71.60;45.15;;;;;;;-0.39;68.92;102232.84;2721739;87;21372;-66
2022/03/01 00:25:30;;;;;;;85.53;50.03;;;;;;;-0.41;68.91;102228.95;2721431;86;21079;-66
2022/03/01 00:29:32;;;;;;;105.32;59.05;;;;;;;-0.32;69.26;102230.66;2721675;87;21084;-66
2022/03/01 00:33:33;;;;;;;79.32;47.95;;;;;;;-0.33;68.63;102228.46;2721476;87;21063;-67
2022/03/01 00:37:35;;;;;;;96.32;52.98;;;;;;;-0.34;68.26;102231.95;2721973;87;21076;-67
2022/03/01 00:41:36;;;;;;;87.37;47.80;;;;;;;-0.38;67.92;102229.39;2721855;86;21056;-66
2022/03/01 00:45:38;;;;;;;86.30;46.55;;;;;;;-0.38;68.29;102229.39;2721997;87;21061;-66
2022/03/01 00:49:39;;;;;;;72.82;41.13;;;;;;;-0.37;68.82;102223.28;2722047;87;21065;-66
2022/03/01 00:53:41;;;;;;;79.70;45.52;;;;;;;-0.44;68.72;102227.66;2721944;85;21072;-66
2022/03/01 00:57:43;;;;;;;79.22;42.33;;;;;;;-0.48;68.99;102232.02;2721741;87;21098;-66
2022/03/01 01:01:44;;;;;;;71.77;44.50;;;;;;;-0.47;69.18;102235.07;2721421;87;21086;-66
2022/03/01 01:05:46;;;;;;;73.65;45.35;;;;;;;-0.52;69.49;102225.08;2721925;87;21124;-66
2022/03/01 01:09:47;;;;;;;82.67;47.62;;;;;;;-0.49;69.14;102234.21;2713876;87;21057;-67
2022/03/01 01:13:49;;;;;;;80.42;44.60;;;;;;;-0.49;68.85;102228.98;2713245;87;21117;-68
2022/03/01 01:17:50;;;;;;;81.28;46.05;;;;;;;-0.49;68.82;102246.40;2713037;87;21094;-68
2022/03/01 01:26:08;;;;;;;90.50;50.05;;;;;;;-0.70;68.89;102256.06;2712779;87;21097;-67
2022/03/01 01:30:13;;;;;;;84.60;52.20;;;;;;;-0.87;69.38;102248.28;2713302;87;21073;-67
2022/03/01 01:34:15;;;;;;;95.73;58.63;;;;;;;-0.89;69.90;102255.25;2713653;87;21061;-67
2022/03/01 01:38:16;;;;;;;92.57;56.23;;;;;;;-0.94;70.23;102257.02;2712864;87;21463;-67
2022/03/01 01:42:18;;;;;;;79.90;47.85;;;;;;;-0.96;70.30;102261.38;2713439;87;21033;-67
2022/03/01 01:46:19;;;;;;;91.63;52.20;;;;;;;-1.00;70.53;102256.59;2713234;87;21025;-67
2022/03/01 01:50:23;;;;;;;79.70;48.92;;;;;;;-1.07;71.02;102257.02;2713313;87;21049;-66
2022/03/01 01:54:25;;;;;;;86.08;47.48;;;;;;;-1.27;71.87;102243.13;2713486;87;21104;-67
2022/03/01 01:58:27;;;;;;;75.78;48.70;;;;;;;-1.27;71.87;102243.13;2713126;87;21030;-67
2022/03/01 02:02:28;;;;;;;79.87;47.60;;;;;;;-1.28;72.57;102255.75;2712945;87;22220;-67
2022/03/01 02:06:30;;;;;;;75.30;47.90;;;;;;;-1.44;73.22;102253.13;2713808;87;21049;-66
2022/03/01 02:10:32;;;;;;;84.32;45.78;;;;;;;-1.58;73.70;102253.98;2714026;87;21053;-67
2022/03/01 02:14:37;;;;;;;83.82;48.87;;;;;;;-1.57;73.82;102256.18;2713498;87;21070;-67
2022/03/01 02:18:39;;;;;;;77.78;46.25;;;;;;;-1.54;73.87;102254.02;2713181;87;21089;-67
2022/03/01 02:22:41;;;;;;;74.35;43.90;;;;;;;-1.54;73.87;102254.02;2712672;86;21596;-67
2022/03/01 02:26:42;;;;;;;81.00;46.23;;;;;;;-1.53;74.50;102262.28;2713036;87;21618;-67
2022/03/01 02:30:44;;;;;;;80.17;46.92;;;;;;;-1.53;74.50;102262.28;2712826;87;22027;-67
2022/03/01 02:34:47;;;;;;;94.55;49.75;;;;;;;-1.54;74.42;102252.71;2712660;87;21057;-67
2022/03/01 02:38:48;;;;;;;91.75;47.35;;;;;;;-1.69;74.70;102236.16;2713432;87;21053;-67
2022/03/01 02:42:50;;;;;;;81.42;45.25;;;;;;;-1.69;74.70;102236.16;2713758;86;21125;-67
2022/03/01 02:46:52;;;;;;;76.62;41.37;;;;;;;-1.58;74.38;102260.52;2713555;87;21579;-67
2022/03/01 02:50:53;;;;;;;69.50;43.45;;;;;;;-1.52;74.57;102254.88;2713173;87;21105;-67
2022/03/01 02:54:55;;;;;;;65.78;42.23;;;;;;;-1.61;74.22;102248.77;2713218;87;21077;-67
2022/03/01 02:58:58;;;;;;;76.40;41.05;;;;;;;-1.61;74.22;102248.77;2713074;87;21073;-67
2022/03/01 03:03:00;;;;;;;69.62;43.63;;;;;;;-1.49;74.32;102257.49;2713836;87;21010;-67
2022/03/01 03:07:02;;;;;;;81.02;40.98;;;;;;;-1.57;74.29;102239.21;2713512;86;21061;-67
2022/03/01 03:11:03;;;;;;;72.32;43.70;;;;;;;-1.42;74.24;102255.76;2713171;87;21100;-67
2022/03/01 03:15:07;;;;;;;67.45;40.67;;;;;;;-1.34;74.14;102254.00;2713056;87;21065;-67
2022/03/01 03:19:10;;;;;;;78.37;43.80;;;;;;;-1.28;73.91;102242.69;2713571;87;21038;-67
2022/03/01 03:23:11;;;;;;;66.47;38.60;;;;;;;-1.23;73.75;102242.24;2713374;87;21078;-67
2022/03/01 03:27:13;;;;;;;69.95;38.67;;;;;;;-1.16;73.52;102243.99;2713231;87;21014;-67
2022/03/01 03:31:15;;;;;;;67.42;39.85;;;;;;;-1.17;72.78;102244.86;2713365;87;21078;-67
2022/03/01 03:35:16;;;;;;;66.70;40.80;;;;;;;-1.40;73.50;102220.07;2713696;87;21049;-67
2022/03/01 03:39:18;;;;;;;65.20;38.35;;;;;;;-1.25;73.79;102244.88;2712912;86;21073;-67
2022/03/01 03:43:20;;;;;;;66.57;37.17;;;;;;;-1.13;73.63;102247.91;2713354;87;21061;-67
2022/03/01 03:47:22;;;;;;;61.40;40.33;;;;;;;-1.00;73.05;102234.38;2717651;87;21091;-67
2022/03/01 03:51:26;;;;;;;72.12;37.67;;;;;;;-1.00;73.05;102234.38;2717694;86;21053;-67
2022/03/01 03:55:27;;;;;;;59.27;36.50;;;;;;;-0.98;72.45;102223.91;2665932;88;21119;-67
2022/03/01 03:59:29;;;;;;;57.73;35.30;;;;;;;-0.98;72.31;102225.21;2665494;88;21633;-68
2022/03/01 04:03:31;;;;;;;77.70;39.20;;;;;;;-0.92;73.10;102216.07;2685476;88;21077;-66
2022/03/01 04:07:32;;;;;;;68.92;40.80;;;;;;;-0.96;71.97;102219.13;2667270;86;21619;-67
2022/03/01 04:11:34;;;;;;;63.55;38.02;;;;;;;-1.01;71.41;102214.35;2722372;86;21022;-66
2022/03/01 04:15:35;;;;;;;79.15;40.73;;;;;;;-1.22;70.91;102213.52;2717377;87;21077;-66
2022/03/01 04:19:37;;;;;;;61.50;36.55;;;;;;;-1.40;71.71;102199.19;2722688;87;21069;-67
2022/03/01 04:23:39;;;;;;;57.35;35.45;;;;;;;-1.73;73.49;102185.70;2714597;87;22296;-67
2022/03/01 04:27:40;;;;;;;71.45;41.48;;;;;;;-1.73;73.49;102185.70;2722678;87;21049;-67
2022/03/01 04:31:42;;;;;;;66.55;43.87;;;;;;;-1.56;73.07;102202.25;2722647;87;21029;-67
2022/03/01 04:35:43;;;;;;;81.40;42.88;;;;;;;-1.49;72.67;102201.36;2722775;86;21097;-67
2022/03/01 04:39:45;;;;;;;72.20;42.35;;;;;;;-1.42;72.57;102197.02;2723066;87;21570;-68
2022/03/01 04:43:46;;;;;;;69.22;42.10;;;;;;;-1.39;72.31;102200.47;2722793;87;21428;-67
2022/03/01 04:47:48;;;;;;;79.65;45.52;;;;;;;-1.54;71.66;102198.75;2722938;86;21565;-66
2022/03/01 04:51:50;;;;;;;70.47;42.27;;;;;;;-1.54;71.66;102198.75;2722648;86;21589;-68
2022/03/01 04:55:51;;;;;;;62.48;40.73;;;;;;;-1.56;72.08;102190.51;2722608;87;21416;-67
2022/03/01 04:59:53;;;;;;;75.87;43.85;;;;;;;-1.48;72.09;102195.27;2722621;87;21585;-67
2022/03/01 05:03:54;;;;;;;64.53;42.73;;;;;;;-1.40;72.99;102193.97;2723074;87;21056;-68
2022/03/01 05:07:56;;;;;;;76.55;45.80;;;;;;;-1.30;72.91;102189.14;2726480;86;21128;-67
2022/03/01 05:11:57;;;;;;;77.27;41.23;;;;;;;-1.19;71.97;102184.78;2748869;86;21038;-67
2022/03/01 05:15:59;;;;;;;66.95;40.88;;;;;;;-1.19;71.89;102193.04;2748547;85;21083;-67
2022/03/01 05:20:01;;;;;;;71.25;39.78;;;;;;;-1.24;71.96;102183.05;2747832;86;21032;-67
2022/03/01 05:24:04;;;;;;;63.83;37.93;;;;;;;-1.24;71.96;102183.05;2749266;86;21315;-68
2022/03/01 05:28:06;;;;;;;78.28;43.23;;;;;;;-1.15;72.07;102159.54;2749026;86;21084;-68
2022/03/01 05:32:08;;;;;;;67.80;44.15;;;;;;;-1.18;70.79;102180.41;2748538;86;21128;-67
2022/03/01 05:36:10;;;;;;;73.62;43.85;;;;;;;-1.18;70.79;102180.41;2748789;86;21084;-67
2022/03/01 05:40:15;;;;;;;76.00;42.83;;;;;;;-1.21;71.53;102176.51;2748948;86;21068;-66
2022/03/01 05:44:17;;;;;;;68.22;40.00;;;;;;;-1.20;71.70;102170.41;2748764;85;21068;-66
2022/03/01 05:48:18;;;;;;;62.65;36.68;;;;;;;-1.23;71.87;102162.59;2748453;86;21060;-66
2022/03/01 05:52:20;;;;;;;64.58;40.25;;;;;;;-1.49;72.28;102151.31;2747979;85;21080;-66
2022/03/01 05:56:22;;;;;;;70.12;44.80;;;;;;;-1.72;73.97;102153.97;2748188;85;21088;-66
2022/03/01 06:00:23;;;;;;;72.25;42.03;;;;;;;-1.72;73.97;102153.97;2748584;86;21060;-67
2022/03/01 06:04:25;;;;;;;77.62;45.15;;;;;;;-1.78;75.08;102148.31;2748726;86;21079;-66
2022/03/01 06:08:27;;;;;;;72.80;45.08;;;;;;;-1.66;75.08;102164.84;2743706;86;21104;-66
2022/03/01 06:12:28;;;;;;;72.47;47.78;;;;;;;-1.47;75.51;102163.96;2729186;87;21049;-67
2022/03/01 06:16:30;;;;;;;74.62;44.58;;;;;;;-0.90;75.32;102176.44;2729262;87;21110;-66
2022/03/01 06:20:32;;;;;;;79.00;48.85;;;;;;;-0.90;75.32;102176.44;2728699;87;21072;-66
2022/03/01 06:24:37;;;;;;;68.20;40.70;;;;;;;-0.73;74.85;102185.50;2730001;87;21061;-67
2022/03/01 06:28:38;;;;;;;62.40;42.98;;;;;;;-0.54;74.52;102189.34;2724901;87;21081;-66
2022/03/01 06:32:40;;;;;;;75.78;40.78;;;;;;;-0.37;74.82;102187.52;2725864;87;21077;-66
2022/03/01 06:36:42;;;;;;;68.12;39.95;;;;;;;-0.28;74.86;102180.06;2725895;87;21076;-67
2022/03/01 06:40:44;;;;;;;67.35;42.67;;;;;;;-0.15;74.80;102180.42;2725926;87;21128;-66
2022/03/01 06:44:46;;;;;;;67.62;40.85;;;;;;;-0.05;74.77;102194.73;2725821;87;21735;-66
2022/03/01 06:48:48;;;;;;;66.47;38.70;;;;;;;0.01;75.36;102188.17;2725975;87;21072;-65
2022/03/01 06:52:49;;;;;;;63.30;40.50;;;;;;;0.15;74.97;102176.28;2725765;87;21545;-66
2022/03/01 06:56:51;;;;;;;61.83;39.53;;;;;;;0.37;74.82;102177.41;2725466;87;21093;-66
2022/03/01 07:00:52;;;;;;;70.35;38.85;;;;;;;0.53;75.23;102173.78;2726112;87;21093;-66
2022/03/01 07:04:59;;;;;;;64.87;38.65;;;;;;;0.85;75.03;102167.78;2726501;87;21088;-67
2022/03/01 07:08:58;;;;;;;65.90;42.15;;;;;;;0.75;75.27;102165.70;2725120;86;21656;-66
2022/03/01 07:13:00;;;;;;;67.05;38.23;;;;;;;0.76;75.34;102156.08;2726335;87;21033;-66
2022/03/01 07:17:01;;;;;;;78.72;43.35;;;;;;;0.53;76.51;102156.76;2726484;86;21053;-66
2022/03/01 07:21:03;;;;;;;65.28;36.95;;;;;;;0.39;77.82;102158.20;2725697;87;21045;-66
2022/03/01 07:25:07;;;;;;;71.87;41.58;;;;;;;0.35;78.91;102156.47;2726859;86;21081;-66
2022/03/01 07:29:08;;;;;;;76.05;41.85;;;;;;;0.54;78.21;102154.98;2726575;87;21124;-66
2022/03/01 07:33:10;;;;;;;76.42;40.48;;;;;;;0.64;79.23;102159.27;2725734;87;21065;-66
2022/03/01 07:37:12;;;;;;;56.95;39.05;;;;;;;0.74;78.43;102147.37;2726074;87;21132;-66
2022/03/01 07:41:14;;;;;;;72.32;42.40;;;;;;;0.88;78.11;102141.55;2725751;87;21034;-67
2022/03/01 07:45:15;;;;;;;105.85;65.15;;;;;;;1.05;76.87;102140.48;2725738;87;21076;-67
2022/03/01 07:49:17;;;;;;;128.00;70.87;;;;;;;1.31;76.28;102141.89;2726117;87;21100;-66
2022/03/01 07:53:19;;;;;;;74.55;42.20;;;;;;;1.35;76.30;102137.02;2726045;87;21045;-66
2022/03/01 07:57:21;;;;;;;72.42;42.35;;;;;;;1.63;73.90;102141.91;2725440;87;21570;-66
2022/03/01 08:01:23;;;;;;;94.77;52.45;;;;;;;2.02;74.82;102140.87;2726775;87;21033;-66
2022/03/01 08:05:24;;;;;;;92.62;55.78;;;;;;;2.22;73.12;102138.36;2726953;87;21065;-66
2022/03/01 08:09:26;;;;;;;85.60;49.70;;;;;;;2.38;72.50;102141.14;2725833;86;21080;-66
2022/03/01 08:13:29;;;;;;;108.63;65.28;;;;;;;2.47;72.28;102144.05;2726638;86;21088;-66
2022/03/01 08:17:31;;;;;;;76.10;41.60;;;;;;;2.76;71.69;102145.26;2726383;87;21061;-66
2022/03/01 08:21:33;;;;;;;62.13;40.90;;;;;;;2.78;70.57;102145.24;2726746;87;21057;-66
2022/03/01 08:25:34;;;;;;;69.95;41.58;;;;;;;2.97;72.05;102141.35;2726232;87;21057;-66
2022/03/01 08:29:36;;;;;;;61.37;34.98;;;;;;;3.20;70.95;102137.38;2726796;87;21076;-66
2022/03/01 08:33:39;;;;;;;61.48;33.63;;;;;;;3.20;69.38;102137.81;2726594;87;21069;-66
2022/03/01 08:37:40;;;;;;;63.15;34.83;;;;;;;3.15;69.62;102135.30;2726866;87;21097;-66
2022/03/01 08:41:42;;;;;;;66.82;42.13;;;;;;;3.08;70.00;102127.11;2727252;87;21053;-66
2022/03/01 08:45:45;;;;;;;87.92;52.98;;;;;;;3.38;69.44;102129.52;2727244;87;21114;-66
2022/03/01 08:49:47;;;;;;;67.95;42.58;;;;;;;3.62;69.19;102131.65;2727948;87;21547;-66
2022/03/01 08:53:50;;;;;;;57.40;33.80;;;;;;;3.83;69.53;102135.09;2727894;87;21114;-66
2022/03/01 08:57:52;;;;;;;70.78;37.10;;;;;;;3.85;70.11;102124.53;2726127;87;21136;-66
2022/03/01 09:01:54;;;;;;;54.18;33.55;;;;;;;3.99;70.22;102126.83;2728060;87;21104;-66
2022/03/01 09:05:55;;;;;;;44.88;25.12;;;;;;;3.97;69.45;102122.05;2728235;87;21060;-66
2022/03/01 09:09:57;;;;;;;54.93;31.80;;;;;;;3.86;68.88;102120.53;2727840;86;21096;-66
2022/03/01 09:13:59;;;;;;;49.93;29.75;;;;;;;3.97;69.69;102113.69;2728072;87;21038;-66
2022/03/01 09:18:03;;;;;;;43.17;30.77;;;;;;;4.02;69.06;102110.94;2728400;87;21053;-66
2022/03/01 09:22:05;;;;;;;64.67;47.33;;;;;;;4.30;68.11;102112.86;2728933;87;21045;-66
2022/03/01 09:26:06;;;;;;;39.70;28.92;;;;;;;4.54;68.10;102103.44;2728252;87;21026;-66
2022/03/01 09:30:09;;;;;;;47.58;26.37;;;;;;;4.76;66.47;102095.40;2728249;87;21081;-66
2022/03/01 09:34:11;;;;;;;31.85;20.72;;;;;;;4.94;65.78;102096.19;2728512;87;21037;-66
2022/03/01 09:38:13;;;;;;;37.50;21.68;;;;;;;4.79;66.00;102091.35;2728241;86;21152;-66
2022/03/01 09:42:15;;;;;;;35.55;20.77;;;;;;;5.05;65.04;102101.16;2728778;86;21005;-66
2022/03/01 09:46:16;;;;;;;114.25;58.63;;;;;;;5.00;65.21;102096.00;2728906;87;21065;-66
2022/03/01 09:50:22;;;;;;;193.68;95.00;;;;;;;5.13;63.34;102093.02;2729040;87;21116;-66
2022/03/01 09:54:23;;;;;;;68.33;38.60;;;;;;;5.14;63.14;102093.42;2729036;87;21077;-66
2022/03/01 09:58:25;;;;;;;47.58;29.45;;;;;;;5.32;63.33;102092.45;2728000;86;21065;-66
2022/03/01 10:02:36;;;;;;;52.80;32.67;;;;;;;5.51;62.83;102090.09;2729111;87;21006;-66
2022/03/01 10:06:47;;;;;;;42.50;28.32;;;;;;;5.57;61.20;102088.13;2728996;87;21085;-66
2022/03/01 10:10:52;;;;;;;42.03;29.87;;;;;;;5.68;61.57;102089.53;2740488;86;21780;-66
2022/03/01 10:15:04;;;;;;;37.55;20.48;;;;;;;5.78;62.04;102080.86;2753148;86;21878;-66
2022/03/01 10:19:07;;;;;;;47.62;25.20;;;;;;;5.67;60.95;102077.25;2752566;86;21083;-66
2022/03/01 10:23:10;;;;;;;29.05;19.12;;;;;;;5.77;60.57;102091.02;2752807;85;21096;-66
2022/03/01 10:27:12;;;;;;;24.10;15.28;;;;;;;5.66;59.99;102094.01;2752840;86;21049;-66
2022/03/01 10:31:18;;;;;;;35.03;18.98;;;;;;;5.75;60.80;102093.73;2752557;86;21048;-65
2022/03/01 10:35:20;;;;;;;;;;;;;;;5.85;59.89;102081.93;2754551;85;21099;-66
2022/03/01 10:39:28;;;;;;;34.75;20.60;;;;;;;5.76;59.23;102067.73;2752243;86;20137;-66
2022/03/01 10:43:30;;;;;;;26.70;15.78;;;;;;;5.68;58.88;102052.57;2752401;85;21064;-65
2022/03/01 10:47:32;;;;;;;25.48;15.80;;;;;;;5.77;58.66;102037.76;2752662;85;21563;-66
2022/03/01 10:51:53;;;;;;;18.10;12.00;;;;;;;5.78;58.80;102039.48;2752387;86;21016;-66
2022/03/01 10:56:01;;;;;;;14.75;10.88;;;;;;;5.82;58.67;102033.17;2752373;86;21028;-66
2022/03/01 11:00:04;;;;;;;24.40;12.35;;;;;;;5.75;58.32;102023.75;2752308;86;21140;-66
2022/03/01 11:04:07;;;;;;;21.42;12.53;;;;;;;5.85;58.79;102021.19;2751467;85;21013;-66
2022/03/01 11:08:11;;;;;;;23.47;13.28;;;;;;;5.80;58.68;102013.88;2752052;85;21072;-66
2022/03/01 11:12:12;;;;;;;21.40;13.28;;;;;;;5.74;58.64;102007.50;2752259;86;21119;-65
2022/03/01 11:16:46;;;;;;;135.18;78.10;;;;;;;5.83;58.52;102009.81;2752271;86;21072;-66
2022/03/01 11:20:50;;;;;;;46.25;23.15;;;;;;;5.95;57.66;102003.72;2752206;85;21120;-66
2022/03/01 11:24:52;;;;;;;31.70;18.37;;;;;;;6.04;57.91;101999.92;2752451;86;21068;-66
2022/03/01 11:28:57;;;;;;;15.35;11.12;;;;;;;5.98;58.65;101997.84;2752754;86;21543;-66
2022/03/01 11:33:00;;;;;;;19.50;12.53;;;;;;;6.19;57.72;101984.84;2751833;86;21048;-66
2022/03/01 11:37:03;;;;;;;21.33;13.08;;;;;;;6.17;57.50;101979.20;2752344;86;21037;-66
2022/03/01 11:41:11;;;;;;;23.35;13.62;;;;;;;6.03;57.02;101981.88;2752295;86;21487;-66
2022/03/01 11:45:13;;;;;;;16.82;10.88;;;;;;;6.11;58.89;101974.55;2752177;85;21052;-66
2022/03/01 11:49:19;;;;;;;16.25;12.00;;;;;;;6.09;57.39;101967.14;2751737;86;21044;-66
2022/03/01 11:53:23;;;;;;;21.73;12.03;;;;;;;6.20;58.20;101964.11;2752217;86;21064;-66
2022/03/01 11:57:29;;;;;;;14.03;10.50;;;;;;;6.08;57.53;101959.26;2752602;86;21075;-66
2022/03/01 12:01:32;;;;;;;23.45;15.63;;;;;;;6.10;57.31;101963.58;2752089;86;21087;-66
2022/03/01 12:05:36;;;;;;;58.28;29.92;;;;;;;6.26;57.62;101955.95;2724675;86;21059;-66
2022/03/01 12:09:39;;;;;;;67.40;38.45;;;;;;;5.98;56.97;101952.94;2752666;86;21040;-66
2022/03/01 12:13:46;;;;;;;22.80;16.80;;;;;;;6.21;58.01;101942.05;2752307;86;21042;-66
2022/03/01 12:17:49;;;;;;;20.23;13.40;;;;;;;6.20;57.63;101947.38;2752454;86;21060;-66
2022/03/01 12:21:55;;;;;;;23.90;13.58;;;;;;;6.32;56.34;101943.41;2752681;86;21100;-66
2022/03/01 12:26:04;;;;;;;24.37;12.83;;;;;;;6.31;56.56;101933.31;2752563;86;21099;-66
2022/03/01 12:30:08;;;;;;;17.70;12.45;;;;;;;6.37;55.88;101918.54;2753019;85;21024;-66
2022/03/01 12:34:09;;;;;;;39.23;23.40;;;;;;;6.49;55.61;101907.95;2752737;86;21078;-66
2022/03/01 12:38:14;;;;;;;18.65;13.78;;;;;;;6.51;56.98;101900.81;2752422;86;21072;-66
2022/03/01 12:42:16;;;;;;;24.18;12.58;;;;;;;6.63;56.10;101895.98;2752436;86;21092;-66
2022/03/01 12:46:18;;;;;;;18.40;10.98;;;;;;;6.65;55.37;101891.02;2751173;86;21100;-66
2022/03/01 12:50:19;;;;;;;15.83;13.10;;;;;;;6.65;54.84;101896.30;2752576;86;21100;-66
2022/03/01 12:54:27;;;;;;;16.67;11.73;;;;;;;6.73;55.50;101893.36;2752788;86;21064;-66
2022/03/01 12:58:29;;;;;;;17.87;12.40;;;;;;;6.73;55.29;101881.45;2751944;85;21061;-66
2022/03/01 13:02:31;;;;;;;18.77;11.90;;;;;;;6.73;55.26;101885.91;2752577;85;21040;-66
2022/03/01 13:06:32;;;;;;;19.67;13.43;;;;;;;6.76;55.07;101868.58;2753156;86;21641;-66
2022/03/01 13:10:35;;;;;;;19.73;11.15;;;;;;;6.74;55.24;101861.17;2747482;86;21354;-66
2022/03/01 13:14:37;;;;;;;24.85;17.98;;;;;;;6.65;53.39;101850.02;2729191;87;21046;-66
2022/03/01 13:18:39;;;;;;;23.75;14.25;;;;;;;6.66;55.71;101847.78;2729120;87;20995;-66
2022/03/01 13:22:41;;;;;;;18.02;13.95;;;;;;;6.47;55.81;101838.42;2729247;87;21073;-66
2022/03/01 13:26:43;;;;;;;28.67;14.78;;;;;;;6.71;54.17;101839.22;2729159;87;21093;-66
2022/03/01 13:30:45;;;;;;;23.62;15.35;;;;;;;6.66;54.08;101830.59;2729285;87;21069;-66
2022/03/01 13:34:52;;;;;;;28.45;17.57;;;;;;;6.69;54.33;101821.69;2729518;87;21053;-66
2022/03/01 13:39:06;;;;;;;29.90;17.75;;;;;;;6.82;55.60;101820.27;2729580;87;21025;-66
2022/03/01 13:43:11;;;;;;;21.42;13.98;;;;;;;6.74;54.87;101809.13;2666608;89;21067;-66
2022/03/01 13:47:19;;;;;;;22.98;15.35;;;;;;;6.90;55.50;101801.43;2729909;87;21057;-66
2022/03/01 13:51:20;;;;;;;21.33;14.87;;;;;;;6.90;56.35;101789.97;2730471;87;20994;-66
2022/03/01 13:55:25;;;;;;;29.37;19.50;;;;;;;6.84;55.66;101789.31;2729889;86;21109;-66
2022/03/01 13:59:27;;;;;;;26.53;17.97;;;;;;;6.93;55.49;101791.16;2730032;87;21077;-66
2022/03/01 14:03:32;;;;;;;32.35;17.37;;;;;;;6.94;55.33;101784.95;2729754;87;21059;-66
2022/03/01 14:07:34;;;;;;;34.33;18.10;;;;;;;6.78;55.54;101771.52;2729464;87;21034;-66
2022/03/01 14:11:35;;;;;;;30.15;17.77;;;;;;;6.67;55.65;101776.78;2740002;86;21053;-66
2022/03/01 14:15:41;;;;;;;21.73;15.28;;;;;;;6.89;55.63;101767.09;2753712;86;21171;-67
2022/03/01 14:19:52;;;;;;;15.83;11.10;;;;;;;6.76;52.96;101761.47;2753449;86;21056;-67
2022/03/01 14:23:55;;;;;;;19.62;12.07;;;;;;;6.95;52.43;101758.44;2753618;86;21395;-66
2022/03/01 14:27:57;;;;;;;18.32;13.60;;;;;;;7.05;52.48;101754.93;2753284;85;21037;-64
2022/03/01 14:31:58;;;;;;;17.77;12.75;;;;;;;6.84;53.27;101745.67;2752813;86;21029;-65
2022/03/01 14:36:01;;;;;;;17.07;12.13;;;;;;;6.98;53.09;101750.84;2751461;86;21064;-66
2022/03/01 14:40:04;;;;;;;19.85;15.10;;;;;;;7.08;53.00;101752.63;2737551;85;21094;-65
2022/03/01 14:44:06;;;;;;;19.20;13.30;;;;;;;7.19;53.11;101734.47;2738484;85;21091;-65
2022/03/01 14:48:07;;;;;;;30.48;19.32;;;;;;;7.14;52.70;101729.85;2757996;85;21087;-65
2022/03/01 14:52:10;;;;;;;27.62;15.58;;;;;;;7.16;53.45;101727.99;2762090;86;21059;-65
2022/03/01 14:56:12;;;;;;;30.30;17.98;;;;;;;7.19;53.84;101727.85;2760211;86;21063;-66
2022/03/01 15:00:15;;;;;;;29.10;20.92;;;;;;;7.12;53.51;101718.00;2718760;86;21376;-66
2022/03/01 15:04:17;;;;;;;55.63;35.43;;;;;;;7.13;52.84;101717.55;2671046;87;21106;-67
2022/03/01 15:08:20;;;;;;;42.75;23.32;;;;;;;7.07;53.80;101716.03;2753217;86;21142;-66
2022/03/01 15:12:21;;;;;;;24.45;16.02;;;;;;;6.98;53.94;101710.67;2726060;86;21030;-66
2022/03/01 15:16:23;;;;;;;24.37;17.75;;;;;;;6.84;53.92;101715.70;2717714;87;21069;-66
2022/03/01 15:20:25;;;;;;;29.30;17.35;;;;;;;6.81;54.04;101710.10;2652436;88;21074;-66
2022/03/01 15:24:27;;;;;;;24.35;16.02;;;;;;;6.81;54.29;101703.94;2683018;88;21081;-66
2022/03/01 15:28:28;;;;;;;23.18;17.32;;;;;;;6.70;54.86;101701.31;2683243;87;21086;-66
2022/03/01 15:32:30;;;;;;;26.85;16.00;;;;;;;6.70;54.69;101697.34;2680658;88;21133;-66
2022/03/01 15:36:33;;;;;;;29.90;17.27;;;;;;;6.68;54.49;101696.55;2701943;87;21054;-66
2022/03/01 15:40:35;;;;;;;33.70;22.07;;;;;;;6.64;54.35;101694.94;2711059;86;21063;-66
2022/03/01 15:44:38;;;;;;;24.65;15.58;;;;;;;6.53;55.93;101692.75;2711041;87;21077;-67
2022/03/01 15:48:39;;;;;;;28.45;20.00;;;;;;;6.61;56.63;101697.72;2710950;87;21444;-66
2022/03/01 15:52:42;;;;;;;28.60;19.75;;;;;;;6.46;57.20;101695.72;2695339;87;21082;-66
2022/03/01 15:56:44;;;;;;;20.20;15.63;;;;;;;6.26;56.43;101689.48;2708934;87;21387;-66
2022/03/01 16:00:46;;;;;;;32.20;19.62;;;;;;;6.25;57.20;101699.65;2707700;87;21074;-66
2022/03/01 16:04:48;;;;;;;33.50;24.07;;;;;;;6.16;57.39;101694.76;2718901;87;21116;-66
2022/03/01 16:08:50;;;;;;;42.33;23.55;;;;;;;6.03;57.29;101687.31;2729765;87;21045;-66
2022/03/01 16:12:52;;;;;;;48.17;29.32;;;;;;;5.90;58.26;101687.40;2743884;85;21129;-65
2022/03/01 16:16:54;;;;;;;39.48;26.05;;;;;;;5.91;58.06;101692.59;2750753;86;21135;-66
2022/03/01 16:20:55;;;;;;;117.33;81.55;;;;;;;5.85;58.29;101692.38;2746484;86;21028;-67
2022/03/01 16:24:57;;;;;;;111.32;72.80;;;;;;;5.71;59.22;101693.41;2720479;85;21095;-67
2022/03/01 16:28:59;;;;;;;157.78;90.03;;;;;;;5.57;59.86;101693.91;2718595;87;21084;-67
2022/03/01 16:33:01;;;;;;;131.40;71.75;;;;;;;5.51;59.54;101695.47;2670673;89;21012;-67
2022/03/01 16:37:04;;;;;;;103.17;51.13;;;;;;;5.45;59.48;101700.52;2669679;89;21071;-67
2022/03/01 16:41:06;;;;;;;50.23;30.10;;;;;;;5.37;59.65;101702.59;2665291;89;21051;-67
2022/03/01 16:45:09;;;;;;;61.35;36.68;;;;;;;5.28;59.90;101700.69;2713856;86;21048;-67
2022/03/01 16:49:11;;;;;;;80.03;48.50;;;;;;;5.27;60.29;101702.08;2708314;88;21009;-67
2022/03/01 16:53:13;;;;;;;62.48;41.10;;;;;;;5.19;60.27;101702.35;2708243;86;21052;-67
2022/03/01 16:57:17;;;;;;;66.02;39.55;;;;;;;5.15;60.13;101696.31;2738141;86;28975;-68
2022/03/01 17:01:19;;;;;;;68.67;44.42;;;;;;;5.07;60.21;101693.55;2752469;86;21071;-67
2022/03/01 17:05:21;;;;;;;98.40;52.78;;;;;;;4.95;59.93;101698.37;2752511;85;21040;-67
2022/03/01 17:09:24;;;;;;;240.25;130.50;;;;;;;4.89;60.18;101691.97;2751798;86;21016;-68
2022/03/01 17:13:25;;;;;;;190.95;107.00;;;;;;;4.81;60.38;101697.52;2751973;85;21073;-67
2022/03/01 17:17:27;;;;;;;114.50;62.38;;;;;;;4.71;60.27;101696.98;2752187;85;21127;-68
2022/03/01 17:21:28;;;;;;;145.68;81.90;;;;;;;4.66;60.59;101698.92;2716864;87;21080;-68
2022/03/01 17:25:37;;;;;;;72.65;48.40;;;;;;;4.65;60.66;101702.95;2669551;89;21051;-68
2022/03/01 17:29:35;;;;;;;127.45;68.50;;;;;;;4.55;60.90;101701.08;2750707;86;21049;-69
2022/03/01 17:33:37;;;;;;;121.60;66.53;;;;;;;4.37;62.04;101702.53;2751803;85;21085;-69
2022/03/01 17:37:39;;;;;;;204.57;104.97;;;;;;;4.08;62.77;101703.04;2751672;86;21072;-68
2022/03/01 17:41:44;;;;;;;187.20;95.40;;;;;;;3.85;63.08;101704.16;2752006;86;21068;-68
2022/03/01 17:45:44;;;;;;;214.57;105.85;;;;;;;3.59;63.91;101704.10;2751469;85;21616;-69
2022/03/01 17:49:46;;;;;;;254.43;126.33;;;;;;;3.50;64.19;101698.19;2751443;86;21013;-68
2022/03/01 17:53:48;;;;;;;292.25;148.07;;;;;;;3.52;64.22;101698.16;2751649;86;21036;-69
2022/03/01 17:57:50;;;;;;;270.95;129.95;;;;;;;3.51;64.52;101694.64;2716908;86;21131;-68
2022/03/01 18:01:53;;;;;;;113.65;62.95;;;;;;;3.42;65.26;101679.99;2698211;88;21604;-68
2022/03/01 18:05:56;;;;;;;73.90;50.45;;;;;;;3.21;66.73;101670.97;2706814;87;21051;-69
2022/03/01 18:09:58;;;;;;;87.42;47.70;;;;;;;2.97;67.62;101667.27;2689961;87;21037;-69
2022/03/01 18:14:03;;;;;;;83.97;52.35;;;;;;;2.72;69.32;101664.00;2672530;88;21097;-70
2022/03/01 18:18:04;;;;;;;81.53;48.08;;;;;;;2.39;70.95;101658.28;2728356;86;21624;-67
2022/03/01 18:22:07;;;;;;;101.47;59.05;;;;;;;2.19;71.91;101657.45;2732459;86;21084;-69
2022/03/01 18:26:08;;;;;;;143.30;74.70;;;;;;;2.06;71.55;101655.59;2721010;86;22634;-69
2022/03/01 18:30:10;;;;;;;214.50;103.38;;;;;;;1.99;71.39;101655.33;2718098;86;21092;-69
2022/03/01 18:34:12;;;;;;;261.70;127.60;;;;;;;1.78;72.78;101654.94;2706246;88;21148;-68